Time;durP1;ratioP1;P1;durP2;ratioP2;P2;SDS_P1;SDS_P2;PMS_P1;PMS_P2;Temp;Humidity;BMP_temperature;BMP_pressure;BME280_temperature;BME280_humidity;BME280_pressure;Samples;Min_cycle;Max_cycle;Signal;HPM_P1;HPM_P2
2021/07/02 00:00:13;;;;;;;13.10;7.20;;;15.00;99.90;;;;;;4992894;28;20201;-52
2021/07/02 00:02:40;;;;;;;7.97;5.80;;;15.00;99.90;;;;;;4991427;28;20391;-52
2021/07/02 00:05:11;;;;;;;9.30;7.20;;;15.00;99.90;;;;;;4996224;28;20296;-52
2021/07/02 00:07:38;;;;;;;10.17;6.33;;;15.00;99.90;;;;;;4992147;28;20846;-52
2021/07/02 00:10:06;;;;;;;11.80;7.63;;;15.00;99.90;;;;;;4993554;28;20277;-52
2021/07/02 00:12:33;;;;;;;11.47;7.40;;;15.00;99.90;;;;;;4993686;28;20253;-51
2021/07/02 00:15:02;;;;;;;12.10;7.60;;;14.80;99.90;;;;;;4993840;28;20607;-52
2021/07/02 00:17:29;;;;;;;15.20;7.73;;;15.00;99.90;;;;;;4990430;28;20284;-52
2021/07/02 00:19:55;;;;;;;11.70;7.40;;;14.90;99.90;;;;;;4994453;28;20372;-53
2021/07/02 00:22:22;;;;;;;16.40;7.87;;;14.80;99.90;;;;;;4990919;28;20952;-52
2021/07/02 00:24:49;;;;;;;12.33;7.27;;;14.90;99.90;;;;;;4992623;28;20236;-52
2021/07/02 00:27:16;;;;;;;9.97;7.20;;;14.80;99.90;;;;;;4992296;28;20226;-52
2021/07/02 00:29:42;;;;;;;13.77;7.07;;;14.80;99.90;;;;;;4993629;28;20338;-52
2021/07/02 00:32:11;;;;;;;12.67;7.43;;;14.90;99.90;;;;;;4994570;28;20291;-52
2021/07/02 00:34:38;;;;;;;12.33;7.00;;;15.00;99.90;;;;;;4995687;28;20340;-52
2021/07/02 00:37:05;;;;;;;14.97;8.20;;;15.00;99.90;;;;;;4993300;28;20227;-52
2021/07/02 00:39:32;;;;;;;16.60;8.23;;;14.90;99.90;;;;;;4994272;28;20655;-53
2021/07/02 00:41:59;;;;;;;15.53;7.17;;;15.00;99.90;;;;;;4992919;28;20229;-53
2021/07/02 00:44:41;;;;;;;12.07;7.63;;;15.00;99.90;;;;;;4994158;28;20226;-52
2021/07/02 00:47:09;;;;;;;15.90;7.73;;;14.80;99.90;;;;;;4989148;28;20265;-52
2021/07/02 00:49:37;;;;;;;15.93;7.83;;;14.70;99.90;;;;;;4989560;28;20351;-52
2021/07/02 00:52:06;;;;;;;12.97;8.20;;;14.70;99.90;;;;;;4990982;28;20348;-52
2021/07/02 00:54:34;;;;;;;15.80;7.03;;;14.70;99.90;;;;;;5007657;28;20198;-52
2021/07/02 00:57:03;;;;;;;16.93;8.17;;;14.60;99.90;;;;;;4994997;28;20761;-51
2021/07/02 00:59:30;;;;;;;16.90;7.90;;;14.40;99.90;;;;;;4992010;28;20620;-52
2021/07/02 01:01:58;;;;;;;13.23;7.70;;;14.30;99.90;;;;;;4990121;28;20237;-52
2021/07/02 01:04:25;;;;;;;14.33;8.23;;;14.40;99.90;;;;;;4990811;28;20209;-53
2021/07/02 01:06:54;;;;;;;18.00;7.87;;;14.30;99.90;;;;;;4993317;28;20391;-52
2021/07/02 01:09:23;;;;;;;17.53;8.40;;;14.40;99.90;;;;;;4993621;28;20350;-53
2021/07/02 01:11:50;;;;;;;11.90;8.13;;;14.40;99.90;;;;;;4993350;28;20601;-53
2021/07/02 01:14:17;;;;;;;13.87;7.77;;;14.50;99.90;;;;;;4990159;28;20308;-53
2021/07/02 01:16:44;;;;;;;12.93;8.23;;;14.60;99.90;;;;;;4992087;28;20576;-53
2021/07/02 01:19:14;;;;;;;17.77;8.83;;;14.60;99.90;;;;;;4991455;28;20729;-52
2021/07/02 01:21:41;;;;;;;14.70;8.23;;;14.50;99.90;;;;;;4992441;28;20205;-52
2021/07/02 01:24:07;;;;;;;16.47;8.20;;;14.50;99.90;;;;;;4991837;28;20911;-52
2021/07/02 01:26:34;;;;;;;13.87;8.37;;;14.60;99.90;;;;;;4994682;28;20229;-52
2021/07/02 01:29:01;;;;;;;15.47;9.00;;;14.50;99.90;;;;;;4997451;28;20352;-52
2021/07/02 01:31:28;;;;;;;16.00;9.30;;;14.60;99.90;;;;;;4997670;28;20267;-52
2021/07/02 01:33:55;;;;;;;19.10;8.40;;;14.60;99.90;;;;;;4991194;28;20224;-52
2021/07/02 01:36:25;;;;;;;15.93;8.77;;;14.70;99.90;;;;;;4993611;28;20299;-52
2021/07/02 01:38:52;;;;;;;15.30;8.30;;;14.70;99.90;;;;;;4992246;28;20289;-54
2021/07/02 01:41:19;;;;;;;12.77;7.97;;;14.80;99.90;;;;;;4990579;28;20330;-52
2021/07/02 01:43:46;;;;;;;17.43;8.57;;;14.80;99.90;;;;;;4988846;28;20320;-51
2021/07/02 01:46:13;;;;;;;12.67;7.67;;;14.80;99.90;;;;;;4993115;28;20427;-51
2021/07/02 01:48:40;;;;;;;21.93;8.90;;;14.80;99.90;;;;;;4988178;28;20725;-51
2021/07/02 01:51:07;;;;;;;12.13;8.27;;;14.80;99.90;;;;;;4993562;28;20289;-52
2021/07/02 01:53:34;;;;;;;17.27;8.53;;;14.80;99.90;;;;;;4986795;28;20249;-52
2021/07/02 01:56:02;;;;;;;14.33;8.33;;;14.80;99.90;;;;;;4993305;28;20333;-52
2021/07/02 01:58:28;;;;;;;16.27;8.37;;;14.80;99.90;;;;;;4993050;28;20295;-52
2021/07/02 02:00:55;;;;;;;15.43;8.87;;;14.70;99.90;;;;;;4995165;28;20220;-52
2021/07/02 02:03:22;;;;;;;16.27;8.67;;;14.70;99.90;;;;;;4994494;28;20263;-52
2021/07/02 02:05:49;;;;;;;13.90;8.67;;;14.50;99.90;;;;;;4995032;28;20202;-52
2021/07/02 02:08:16;;;;;;;12.93;8.53;;;14.50;99.90;;;;;;4993041;28;20292;-52
2021/07/02 02:10:43;;;;;;;20.43;10.03;;;14.50;99.90;;;;;;4997496;28;20586;-52
2021/07/02 02:13:09;;;;;;;14.23;9.47;;;14.50;99.90;;;;;;4993960;28;20349;-52
2021/07/02 02:15:36;;;;;;;16.13;8.77;;;14.50;99.90;;;;;;4995661;28;20206;-51
2021/07/02 02:18:04;;;;;;;16.53;9.70;;;14.70;99.90;;;;;;4994385;28;20295;-52
2021/07/02 02:20:31;;;;;;;16.03;8.90;;;14.70;99.90;;;;;;4994596;28;20193;-52
2021/07/02 02:22:58;;;;;;;17.27;9.13;;;14.70;99.90;;;;;;4994066;28;20258;-52
2021/07/02 02:25:24;;;;;;;18.80;10.07;;;14.80;99.90;;;;;;4993861;28;20414;-52
2021/07/02 02:27:51;;;;;;;16.47;9.80;;;14.80;99.90;;;;;;4996006;28;20231;-52
2021/07/02 02:30:18;;;;;;;16.93;9.00;;;14.70;99.90;;;;;;4994907;28;20651;-52
2021/07/02 02:32:45;;;;;;;13.80;8.90;;;14.70;99.90;;;;;;4991706;28;20659;-52
2021/07/02 02:35:12;;;;;;;15.10;9.47;;;14.70;99.90;;;;;;4994368;28;20237;-52
2021/07/02 02:37:39;;;;;;;17.10;10.23;;;14.70;99.90;;;;;;4995145;28;20290;-52
2021/07/02 02:40:07;;;;;;;16.87;9.53;;;14.70;99.90;;;;;;4995749;28;20292;-52
2021/07/02 02:42:35;;;;;;;17.70;9.10;;;14.70;99.90;;;;;;4993828;28;20749;-52
2021/07/02 02:45:03;;;;;;;16.30;9.60;;;14.70;99.90;;;;;;4995048;28;20201;-52
2021/07/02 02:47:31;;;;;;;15.90;9.70;;;14.60;99.90;;;;;;4992519;28;20667;-52
2021/07/02 02:49:58;;;;;;;16.27;9.77;;;14.70;99.90;;;;;;4993649;28;20200;-52
2021/07/02 02:52:25;;;;;;;15.17;9.43;;;14.60;99.90;;;;;;4993765;28;20337;-52
2021/07/02 02:54:52;;;;;;;17.07;9.40;;;14.60;99.90;;;;;;4995523;28;20670;-51
2021/07/02 02:57:18;;;;;;;12.53;8.60;;;14.60;99.90;;;;;;4993577;28;20236;-52
2021/07/02 02:59:45;;;;;;;14.87;9.20;;;14.60;99.90;;;;;;4995630;28;20268;-51
2021/07/02 03:02:12;;;;;;;16.93;9.67;;;14.60;99.90;;;;;;4991591;28;20219;-52
2021/07/02 03:04:39;;;;;;;13.83;9.93;;;14.60;99.90;;;;;;4995463;28;20289;-52
2021/07/02 03:07:07;;;;;;;16.57;10.17;;;14.70;99.90;;;;;;4992698;28;20289;-52
2021/07/02 03:09:34;;;;;;;17.47;9.23;;;14.70;99.90;;;;;;4993270;28;20213;-52
2021/07/02 03:12:01;;;;;;;16.97;9.20;;;14.60;99.90;;;;;;4994608;28;20707;-52
2021/07/02 03:14:28;;;;;;;14.93;9.37;;;14.60;99.90;;;;;;4993297;28;20589;-52
2021/07/02 03:16:55;;;;;;;14.87;8.80;;;14.60;99.90;;;;;;4991891;28;20285;-52
2021/07/02 03:19:22;;;;;;;18.60;11.03;;;14.60;99.90;;;;;;4993145;28;20296;-52
2021/07/02 03:21:49;;;;;;;15.50;9.33;;;14.70;99.90;;;;;;4995193;28;20247;-52
2021/07/02 03:24:16;;;;;;;15.47;9.53;;;14.70;99.90;;;;;;4996343;28;20275;-53
2021/07/02 03:26:43;;;;;;;18.27;9.23;;;14.70;99.90;;;;;;4995372;28;20210;-53
2021/07/02 03:29:10;;;;;;;14.53;9.53;;;14.70;99.90;;;;;;4992354;28;20701;-52
2021/07/02 03:31:37;;;;;;;18.70;9.57;;;14.60;99.90;;;;;;4993018;28;20319;-53
2021/07/02 03:34:04;;;;;;;14.67;9.30;;;14.60;99.90;;;;;;4991248;28;20707;-52
2021/07/02 03:36:32;;;;;;;17.30;9.80;;;14.60;99.90;;;;;;4993201;28;20201;-52
2021/07/02 03:38:59;;;;;;;15.73;9.40;;;14.60;99.90;;;;;;4992927;28;20224;-52
2021/07/02 03:41:26;;;;;;;18.00;9.47;;;14.70;99.90;;;;;;4992363;28;20233;-52
2021/07/02 03:43:53;;;;;;;16.40;9.90;;;14.70;99.90;;;;;;4995118;28;20296;-52
2021/07/02 03:46:19;;;;;;;16.47;9.47;;;14.70;99.90;;;;;;4995998;28;20233;-52
2021/07/02 03:48:46;;;;;;;14.03;8.17;;;14.80;99.90;;;;;;4991817;28;20224;-52
2021/07/02 03:51:13;;;;;;;17.47;9.70;;;14.80;99.90;;;;;;4993984;28;20667;-52
2021/07/02 03:53:40;;;;;;;16.50;8.97;;;14.80;99.90;;;;;;4990663;28;20665;-53
2021/07/02 03:56:08;;;;;;;19.47;9.67;;;14.80;99.90;;;;;;4994377;28;20288;-53
2021/07/02 03:58:34;;;;;;;17.20;9.20;;;14.70;99.90;;;;;;4994369;28;20200;-52
2021/07/02 04:01:01;;;;;;;17.30;9.63;;;14.80;99.90;;;;;;4993333;28;20695;-52
2021/07/02 04:03:28;;;;;;;15.23;8.83;;;14.80;99.90;;;;;;4990401;28;20244;-52
2021/07/02 04:05:55;;;;;;;16.37;9.40;;;14.90;99.90;;;;;;4994212;28;20209;-52
2021/07/02 04:08:22;;;;;;;18.03;9.23;;;14.90;99.90;;;;;;4992347;28;20300;-52
2021/07/02 04:10:48;;;;;;;22.57;10.57;;;14.90;99.90;;;;;;4991674;28;20320;-53
2021/07/02 04:13:15;;;;;;;14.10;8.17;;;14.80;99.90;;;;;;4990800;28;20721;-53
2021/07/02 04:15:42;;;;;;;16.70;8.90;;;14.80;99.90;;;;;;4993696;28;20291;-53
2021/07/02 04:18:09;;;;;;;16.30;9.30;;;14.80;99.90;;;;;;4991932;28;20629;-53
2021/07/02 04:20:38;;;;;;;17.07;8.70;;;14.80;99.90;;;;;;4992080;28;20768;-53
2021/07/02 04:23:06;;;;;;;17.00;9.37;;;14.80;99.90;;;;;;4991499;28;20340;-53
2021/07/02 04:25:32;;;;;;;15.33;9.03;;;14.90;99.90;;;;;;4992844;28;20248;-53
2021/07/02 04:27:59;;;;;;;13.00;8.20;;;14.80;99.90;;;;;;5000189;28;20289;-53
2021/07/02 04:30:26;;;;;;;13.27;8.00;;;14.90;99.90;;;;;;4996902;28;20966;-52
2021/07/02 04:32:53;;;;;;;12.20;8.50;;;14.90;99.90;;;;;;4992682;28;20291;-51
2021/07/02 04:35:20;;;;;;;16.00;8.70;;;14.90;99.90;;;;;;4993308;28;21022;-51
2021/07/02 04:37:47;;;;;;;16.30;8.00;;;15.00;99.90;;;;;;4992476;28;20299;-52
2021/07/02 04:40:14;;;;;;;16.77;8.70;;;14.90;99.90;;;;;;4991605;28;20737;-51
2021/07/02 04:42:41;;;;;;;16.03;8.17;;;14.80;99.90;;;;;;4990443;28;20205;-52
2021/07/02 04:45:08;;;;;;;16.43;9.50;;;14.80;99.90;;;;;;4975585;28;20217;-52
2021/07/02 04:47:35;;;;;;;18.50;8.80;;;14.70;99.90;;;;;;4989407;28;20743;-52
2021/07/02 04:50:05;;;;;;;13.13;8.37;;;14.80;99.90;;;;;;4993909;28;20216;-52
2021/07/02 04:52:32;;;;;;;14.77;8.50;;;14.80;99.90;;;;;;4989815;28;20686;-52
2021/07/02 04:54:59;;;;;;;16.97;8.70;;;14.90;99.90;;;;;;4993451;28;20227;-52
2021/07/02 04:57:25;;;;;;;15.10;8.07;;;14.80;99.90;;;;;;4994682;28;20256;-52
2021/07/02 04:59:52;;;;;;;13.23;7.73;;;14.90;99.90;;;;;;4992426;28;20316;-52
2021/07/02 05:02:19;;;;;;;11.33;8.07;;;15.00;99.90;;;;;;4992034;28;20645;-52
2021/07/02 05:04:46;;;;;;;11.03;7.93;;;15.10;99.90;;;;;;4990351;28;20292;-52
2021/07/02 05:07:13;;;;;;;14.00;8.57;;;15.20;99.90;;;;;;4993146;28;20647;-51
2021/07/02 05:09:41;;;;;;;14.17;8.27;;;15.30;99.90;;;;;;4995050;28;20279;-51
2021/07/02 05:12:10;;;;;;;15.20;9.03;;;15.30;99.90;;;;;;4993004;28;21071;-52
2021/07/02 05:14:39;;;;;;;13.37;8.03;;;15.30;99.90;;;;;;4990577;28;20399;-52
2021/07/02 05:17:08;;;;;;;10.43;8.03;;;15.20;99.90;;;;;;4991449;28;20204;-52
2021/07/02 05:19:38;;;;;;;15.57;8.60;;;15.20;99.90;;;;;;4990467;28;20333;-52
2021/07/02 05:22:05;;;;;;;11.43;7.20;;;15.30;99.90;;;;;;4993210;28;20287;-52
2021/07/02 05:24:32;;;;;;;13.10;8.47;;;15.60;99.90;;;;;;4990768;28;20298;-53
2021/07/02 05:26:59;;;;;;;15.50;8.03;;;15.50;99.90;;;;;;4992343;28;20692;-52
2021/07/02 05:29:25;;;;;;;12.87;8.20;;;15.40;99.90;;;;;;4992560;28;20213;-52
2021/07/02 05:31:52;;;;;;;12.83;8.50;;;15.30;99.90;;;;;;4992464;28;20749;-52
2021/07/02 05:34:19;;;;;;;13.30;8.10;;;15.30;99.90;;;;;;4992266;28;20755;-52
2021/07/02 05:36:46;;;;;;;11.00;7.57;;;15.50;99.90;;;;;;4999174;28;20584;-52
2021/07/02 05:39:13;;;;;;;12.43;7.73;;;15.60;99.90;;;;;;4998296;28;20276;-52
2021/07/02 05:41:40;;;;;;;15.37;8.00;;;15.60;99.90;;;;;;4998857;28;20264;-52
2021/07/02 05:44:07;;;;;;;16.73;8.63;;;15.60;99.90;;;;;;5000465;28;20785;-52
2021/07/02 05:46:33;;;;;;;14.90;7.97;;;15.70;99.90;;;;;;4981033;28;20265;-51
2021/07/02 05:49:03;;;;;;;15.53;8.33;;;15.70;99.90;;;;;;4995969;28;20867;-52
2021/07/02 05:51:29;;;;;;;17.47;9.07;;;15.60;99.90;;;;;;4996726;28;20304;-51
2021/07/02 05:53:56;;;;;;;16.83;8.13;;;15.50;99.90;;;;;;4995766;28;20328;-51
2021/07/02 05:56:27;;;;;;;18.93;9.50;;;15.40;99.90;;;;;;4995992;28;20634;-52
2021/07/02 05:58:55;;;;;;;15.23;9.27;;;15.40;99.90;;;;;;4996931;28;20286;-51
2021/07/02 06:01:23;;;;;;;13.43;8.47;;;15.40;99.90;;;;;;4991150;28;20404;-52
2021/07/02 06:03:50;;;;;;;17.13;9.47;;;15.40;99.90;;;;;;4992262;28;20279;-52
2021/07/02 06:06:18;;;;;;;13.30;9.33;;;15.30;99.90;;;;;;4993800;28;20205;-53
2021/07/02 06:08:46;;;;;;;14.60;8.30;;;15.40;99.90;;;;;;4991758;28;20595;-53
2021/07/02 06:11:13;;;;;;;16.00;9.60;;;15.50;99.90;;;;;;4995831;28;20630;-52
2021/07/02 06:13:40;;;;;;;19.77;9.73;;;15.40;99.90;;;;;;4995436;28;20317;-52
2021/07/02 06:16:07;;;;;;;18.07;9.63;;;15.50;99.90;;;;;;4997062;28;20259;-53
2021/07/02 06:18:34;;;;;;;20.37;9.77;;;15.50;99.90;;;;;;4996933;28;20212;-53
2021/07/02 06:21:01;;;;;;;20.67;10.73;;;15.50;99.90;;;;;;4996496;28;20213;-52
2021/07/02 06:23:35;;;;;;;19.37;11.07;;;15.60;99.90;;;;;;4994437;28;20201;-52
2021/07/02 06:26:03;;;;;;;20.80;12.07;;;15.50;99.90;;;;;;4993857;28;20202;-52
2021/07/02 06:28:31;;;;;;;18.87;9.93;;;15.60;99.90;;;;;;4995431;28;20198;-52
2021/07/02 06:30:58;;;;;;;17.13;11.17;;;15.70;99.90;;;;;;4994444;28;20599;-52
2021/07/02 06:33:26;;;;;;;19.97;11.33;;;15.80;99.90;;;;;;4994410;28;20195;-52
2021/07/02 06:35:52;;;;;;;21.33;11.80;;;15.80;99.90;;;;;;4994475;28;20662;-52
2021/07/02 06:38:19;;;;;;;18.43;11.40;;;15.80;99.90;;;;;;4996975;28;20230;-52
2021/07/02 06:40:47;;;;;;;21.37;11.20;;;15.80;99.90;;;;;;4999198;28;20235;-53
2021/07/02 06:43:14;;;;;;;23.63;12.60;;;15.90;99.90;;;;;;4997176;28;20203;-52
2021/07/02 06:45:41;;;;;;;20.67;10.60;;;15.80;99.90;;;;;;4995920;28;20230;-53
2021/07/02 06:48:08;;;;;;;19.47;11.77;;;15.90;99.90;;;;;;4995651;28;20775;-52
2021/07/02 06:50:40;;;;;;;16.13;10.70;;;15.80;99.90;;;;;;4999152;28;20288;-52
2021/07/02 06:53:07;;;;;;;20.40;11.67;;;15.80;99.90;;;;;;4991211;28;20268;-52
2021/07/02 06:55:35;;;;;;;21.50;10.07;;;15.90;99.90;;;;;;4997325;28;20241;-51
2021/07/02 06:58:03;;;;;;;16.83;9.93;;;15.90;99.90;;;;;;4995693;28;20475;-57
2021/07/02 07:00:31;;;;;;;20.23;9.70;;;15.70;99.90;;;;;;4993817;28;20705;-52
2021/07/02 07:02:58;;;;;;;19.60;9.40;;;15.60;99.90;;;;;;4994597;28;20627;-52
2021/07/02 07:05:24;;;;;;;17.83;9.50;;;15.60;99.90;;;;;;4993093;28;20306;-52
2021/07/02 07:07:52;;;;;;;15.23;9.00;;;15.70;99.90;;;;;;4994735;28;20213;-52
2021/07/02 07:10:18;;;;;;;13.10;8.47;;;15.90;99.90;;;;;;4995372;28;20248;-54
2021/07/02 07:12:45;;;;;;;13.73;8.63;;;16.00;99.90;;;;;;4994590;28;20763;-52
2021/07/02 07:15:14;;;;;;;11.77;7.73;;;15.90;99.90;;;;;;4995812;28;20215;-52
2021/07/02 07:17:41;;;;;;;16.40;9.33;;;15.70;99.90;;;;;;5009726;28;20203;-52
2021/07/02 07:20:09;;;;;;;15.27;9.47;;;15.70;99.90;;;;;;4995144;28;20197;-51
2021/07/02 07:22:38;;;;;;;16.90;8.27;;;15.80;99.90;;;;;;4996450;28;20269;-51
2021/07/02 07:25:06;;;;;;;16.83;8.83;;;15.80;99.90;;;;;;4995318;28;20203;-51
2021/07/02 07:27:33;;;;;;;14.90;8.97;;;15.80;99.90;;;;;;4996043;28;20297;-52
2021/07/02 07:30:00;;;;;;;14.70;8.00;;;15.80;99.90;;;;;;4998090;28;20245;-52
2021/07/02 07:32:27;;;;;;;14.53;9.57;;;15.90;99.90;;;;;;4995380;28;20588;-52
2021/07/02 07:34:59;;;;;;;14.33;9.23;;;15.70;99.90;;;;;;4995417;28;20691;-52
2021/07/02 07:37:29;;;;;;;18.37;9.63;;;15.70;99.90;;;;;;4996092;28;20287;-52
2021/07/02 07:39:56;;;;;;;17.67;10.40;;;15.80;99.90;;;;;;4996069;28;20565;-52
2021/07/02 07:42:23;;;;;;;16.93;9.67;;;16.00;99.90;;;;;;4995359;28;20663;-52
2021/07/02 07:44:49;;;;;;;15.43;9.33;;;16.00;99.90;;;;;;4996385;28;20277;-52
2021/07/02 07:47:16;;;;;;;16.30;9.20;;;16.00;99.90;;;;;;4994078;28;20337;-52
2021/07/02 07:49:45;;;;;;;22.70;9.47;;;16.00;99.90;;;;;;4995697;28;20305;-52
2021/07/02 07:52:16;;;;;;;17.97;9.70;;;15.90;99.90;;;;;;4996481;28;20233;-52
2021/07/02 07:54:43;;;;;;;14.93;9.27;;;16.10;99.90;;;;;;4994487;28;20297;-53
2021/07/02 07:57:10;;;;;;;17.47;9.73;;;16.20;99.90;;;;;;4995191;28;20721;-53
2021/07/02 07:59:37;;;;;;;13.73;8.63;;;16.20;99.90;;;;;;4994685;28;20244;-53
2021/07/02 08:02:04;;;;;;;19.30;10.47;;;16.40;99.90;;;;;;4994300;28;20260;-52
2021/07/02 08:04:31;;;;;;;18.40;9.77;;;16.30;99.90;;;;;;4993065;28;20203;-52
2021/07/02 08:06:58;;;;;;;17.10;9.70;;;16.20;99.90;;;;;;4995241;28;20212;-52
2021/07/02 08:09:26;;;;;;;21.53;11.80;;;16.10;99.90;;;;;;4993214;28;20229;-52
2021/07/02 08:11:53;;;;;;;24.80;12.03;;;16.00;99.90;;;;;;4995652;28;20241;-52
2021/07/02 08:14:19;;;;;;;23.10;11.87;;;16.00;99.90;;;;;;4989291;28;20310;-53
2021/07/02 08:16:46;;;;;;;21.33;11.33;;;16.10;99.90;;;;;;4995467;28;20277;-53
2021/07/02 08:19:13;;;;;;;22.33;11.83;;;16.20;99.90;;;;;;4994624;28;20201;-53
2021/07/02 08:21:45;;;;;;;22.90;12.27;;;16.30;99.90;;;;;;4994352;28;20755;-53
2021/07/02 08:24:12;;;;;;;17.87;11.30;;;16.20;99.90;;;;;;4995417;28;20301;-53
2021/07/02 08:26:39;;;;;;;23.77;12.37;;;16.30;99.90;;;;;;4993144;28;20283;-60
2021/07/02 08:29:26;;;;;;;29.23;13.17;;;16.20;99.90;;;;;;4995059;28;20584;-60
2021/07/02 08:31:56;;;;;;;27.83;14.27;;;16.10;99.90;;;;;;4993906;28;20701;-60
2021/07/02 08:34:23;;;;;;;23.43;14.37;;;16.10;99.90;;;;;;4992794;28;20217;-60
2021/07/02 08:36:51;;;;;;;24.50;14.13;;;16.20;99.90;;;;;;5000827;28;20238;-60
2021/07/02 08:39:17;;;;;;;25.33;14.23;;;16.40;99.90;;;;;;4993643;28;20236;-61
2021/07/02 08:41:44;;;;;;;30.17;16.73;;;16.30;99.90;;;;;;4980426;28;20220;-60
2021/07/02 08:44:12;;;;;;;25.33;14.97;;;16.30;99.90;;;;;;4994581;28;20315;-60
2021/07/02 08:46:42;;;;;;;24.63;14.47;;;16.20;99.90;;;;;;4993999;28;20333;-60
2021/07/02 08:49:25;;;;;;;29.97;15.13;;;16.20;99.90;;;;;;4991191;28;20212;-59
2021/07/02 08:51:52;;;;;;;27.93;16.07;;;16.40;99.90;;;;;;4993610;28;20288;-60
2021/07/02 08:54:19;;;;;;;33.50;15.90;;;16.40;99.90;;;;;;4991704;28;20218;-52
2021/07/02 08:56:58;;;;;;;28.37;14.70;;;16.40;99.90;;;;;;4993831;28;20245;-52
2021/07/02 08:59:28;;;;;;;23.17;15.17;;;16.50;99.90;;;;;;4994312;28;20295;-53
2021/07/02 09:01:56;;;;;;;27.77;14.50;;;16.50;99.90;;;;;;4993385;28;20198;-53
2021/07/02 09:04:39;;;;;;;28.80;14.93;;;16.40;99.90;;;;;;4995725;28;20220;-52
2021/07/02 09:07:10;;;;;;;27.77;16.13;;;16.30;99.90;;;;;;4989181;28;20458;-53
2021/07/02 09:09:58;;;;;;;27.37;15.17;;;16.40;99.90;;;;;;4991049;28;20305;-52
2021/07/02 09:12:30;;;;;;;25.97;14.70;;;16.30;99.90;;;;;;4994944;28;20241;-52
2021/07/02 09:14:58;;;;;;;29.23;14.97;;;16.30;99.90;;;;;;4994992;28;20311;-52
2021/07/02 09:17:25;;;;;;;28.23;15.13;;;16.20;99.90;;;;;;4992077;28;20562;-52
2021/07/02 09:20:08;;;;;;;26.97;14.83;;;16.30;99.90;;;;;;4994319;28;20313;-52
2021/07/02 09:22:43;;;;;;;28.07;15.67;;;16.20;99.90;;;;;;4994769;28;20702;-52
2021/07/02 09:25:20;;;;;;;28.50;16.13;;;16.10;99.90;;;;;;4995489;28;20217;-52
2021/07/02 09:27:48;;;;;;;34.87;16.87;;;16.20;99.90;;;;;;4996827;28;20662;-53
2021/07/02 09:30:18;;;;;;;30.70;16.30;;;16.30;99.90;;;;;;4993766;28;20254;-53
2021/07/02 09:33:24;;;;;;;32.60;16.73;;;16.30;99.90;;;;;;4992334;28;20204;-53
2021/07/02 09:35:57;;;;;;;31.17;16.50;;;16.20;99.90;;;;;;4996528;28;20318;-52
2021/07/02 09:38:41;;;;;;;28.30;16.57;;;16.20;99.90;;;;;;4997277;28;20257;-52
2021/07/02 09:41:09;;;;;;;36.30;17.23;;;16.30;99.90;;;;;;5010591;28;20204;-53
2021/07/02 09:43:38;;;;;;;29.83;17.23;;;16.30;99.90;;;;;;4994879;28;20300;-52
2021/07/02 09:46:07;;;;;;;36.30;18.10;;;16.20;99.90;;;;;;4994834;28;20244;-52
2021/07/02 09:48:43;;;;;;;32.90;17.93;;;16.00;99.90;;;;;;4994932;28;20214;-52
2021/07/02 09:51:10;;;;;;;37.23;18.90;;;16.00;99.90;;;;;;4996661;28;20284;-52
2021/07/02 09:53:37;;;;;;;39.00;18.27;;;16.00;99.90;;;;;;4996165;28;20235;-53
2021/07/02 09:56:17;;;;;;;35.77;18.73;;;15.90;99.90;;;;;;4995043;28;20259;-53
2021/07/02 09:58:44;;;;;;;35.67;17.77;;;16.10;99.90;;;;;;5011178;28;20257;-53
2021/07/02 10:01:22;;;;;;;35.73;17.83;;;16.00;99.90;;;;;;4991086;28;20301;-53
2021/07/02 10:03:49;;;;;;;37.07;18.43;;;15.90;99.90;;;;;;4990091;28;20542;-53
2021/07/02 10:06:20;;;;;;;40.93;18.77;;;15.90;99.90;;;;;;4993881;28;20249;-52
2021/07/02 10:08:49;;;;;;;34.47;18.27;;;16.00;99.90;;;;;;4990796;28;20208;-53
2021/07/02 10:11:17;;;;;;;39.73;19.40;;;16.10;99.90;;;;;;4996203;28;20206;-52
2021/07/02 10:13:46;;;;;;;38.50;19.40;;;16.20;99.90;;;;;;4993368;28;20326;-52
2021/07/02 10:16:14;;;;;;;39.30;19.13;;;16.20;99.90;;;;;;4992984;28;20232;-53
2021/07/02 10:18:56;;;;;;;40.57;20.43;;;16.10;99.90;;;;;;4992006;28;20205;-53
2021/07/02 10:21:24;;;;;;;39.13;18.03;;;16.20;99.90;;;;;;4998094;28;20199;-53
2021/07/02 10:24:18;;;;;;;38.43;19.03;;;16.20;99.90;;;;;;4993401;28;20210;-53
2021/07/02 10:26:47;;;;;;;44.47;20.07;;;16.20;99.90;;;;;;4998080;28;20298;-52
2021/07/02 10:29:14;;;;;;;36.17;19.40;;;16.30;99.90;;;;;;4993898;28;20687;-52
2021/07/02 10:31:41;;;;;;;34.17;18.37;;;16.40;99.90;;;;;;4994443;28;20316;-52
2021/07/02 10:34:09;;;;;;;36.53;19.80;;;16.50;99.90;;;;;;4995694;28;20718;-52
2021/07/02 10:36:39;;;;;;;33.80;18.80;;;16.60;99.90;;;;;;4993442;28;20360;-52
2021/07/02 10:39:28;;;;;;;37.07;19.50;;;16.50;99.90;;;;;;4992764;28;20703;-52
2021/07/02 10:42:08;;;;;;;40.50;20.30;;;16.50;99.90;;;;;;4995229;28;20279;-53
2021/07/02 10:44:53;;;;;;;34.57;20.07;;;16.60;99.90;;;;;;4995405;28;20207;-52
2021/07/02 10:47:24;;;;;;;42.70;20.93;;;16.60;99.90;;;;;;4997813;28;20604;-52
2021/07/02 10:49:53;;;;;;;37.33;19.70;;;16.50;99.90;;;;;;4993786;28;20527;-52
2021/07/02 10:52:28;;;;;;;35.43;20.07;;;16.50;99.90;;;;;;4989317;28;20342;-52
2021/07/02 10:54:57;;;;;;;31.17;18.40;;;16.50;99.90;;;;;;4992709;28;20703;-51
2021/07/02 10:57:26;;;;;;;34.10;19.27;;;16.40;99.90;;;;;;4995201;28;20204;-52
2021/07/02 10:59:53;;;;;;;36.93;19.00;;;16.40;99.90;;;;;;4995468;28;20204;-52
2021/07/02 11:02:21;;;;;;;36.40;19.23;;;16.60;99.90;;;;;;4990756;28;20253;-53
2021/07/02 11:04:50;;;;;;;37.10;20.43;;;16.70;99.90;;;;;;4994219;28;20286;-52
2021/07/02 11:07:23;;;;;;;32.87;18.27;;;16.80;99.90;;;;;;4995712;28;20294;-52
2021/07/02 11:12:16;;;;;;;34.47;19.30;;;17.10;99.90;;;;;;4994649;28;20259;-51
2021/07/02 11:14:56;;;;;;;30.83;17.43;;;17.40;99.90;;;;;;4992987;28;20242;-52
2021/07/02 11:17:36;;;;;;;28.30;16.30;;;17.70;99.90;;;;;;4990316;28;20679;-52
2021/07/02 11:20:06;;;;;;;28.80;17.03;;;17.80;99.90;;;;;;4993484;28;20212;-53
2021/07/02 11:22:37;;;;;;;26.87;14.63;;;17.90;99.90;;;;;;4994982;28;20658;-53
2021/07/02 11:25:10;;;;;;;23.60;14.00;;;17.80;99.90;;;;;;4994866;28;20212;-53
2021/07/02 11:27:43;;;;;;;24.63;14.43;;;17.80;99.90;;;;;;4989515;28;20346;-53
2021/07/02 11:30:34;;;;;;;24.37;14.80;;;17.90;99.90;;;;;;4994160;28;20617;-53
2021/07/02 11:33:10;;;;;;;20.43;13.33;;;17.70;99.90;;;;;;4994596;28;20301;-53
2021/07/02 11:35:41;;;;;;;23.17;14.67;;;18.00;99.90;;;;;;4994319;28;20739;-53
2021/07/02 11:38:18;;;;;;;26.57;14.80;;;18.00;99.90;;;;;;4996128;28;20697;-51
2021/07/02 11:40:54;;;;;;;27.60;13.83;;;17.90;99.90;;;;;;4997474;28;20246;-52
2021/07/02 11:43:31;;;;;;;23.83;13.23;;;17.80;99.90;;;;;;4997172;28;20710;-52
2021/07/02 11:46:02;;;;;;;23.67;12.93;;;17.90;99.90;;;;;;4996926;28;20889;-51
2021/07/02 11:48:35;;;;;;;21.83;13.60;;;18.10;99.90;;;;;;4995134;28;20262;-53
2021/07/02 11:51:05;;;;;;;21.60;12.57;;;18.00;99.90;;;;;;4999505;28;20210;-51
2021/07/02 11:53:43;;;;;;;24.07;13.03;;;17.90;99.90;;;;;;4998936;28;20207;-52
2021/07/02 11:56:23;;;;;;;24.50;12.67;;;17.70;99.90;;;;;;4998521;28;20330;-51
2021/07/02 11:58:53;;;;;;;22.23;14.13;;;17.80;99.90;;;;;;4997820;28;20264;-52
2021/07/02 12:01:41;;;;;;;22.10;13.70;;;17.70;99.90;;;;;;4998283;28;20308;-52
2021/07/02 12:04:22;;;;;;;24.33;13.57;;;17.80;99.90;;;;;;4997910;28;20548;-53
2021/07/02 12:06:51;;;;;;;24.80;14.20;;;17.80;99.90;;;;;;4999912;28;20650;-53
2021/07/02 12:09:24;;;;;;;27.37;14.43;;;17.80;99.90;;;;;;4999338;28;20201;-52
2021/07/02 12:11:54;;;;;;;24.97;14.30;;;17.80;99.90;;;;;;4998582;28;20280;-52
2021/07/02 12:14:32;;;;;;;26.40;15.53;;;17.80;99.90;;;;;;4996988;28;20671;-51
2021/07/02 12:17:00;;;;;;;23.37;13.57;;;17.90;99.90;;;;;;4995833;28;20684;-52
2021/07/02 12:19:29;;;;;;;23.57;14.20;;;17.80;99.90;;;;;;4998035;28;20597;-52
2021/07/02 12:21:56;;;;;;;21.50;13.60;;;17.80;99.90;;;;;;4997171;28;20219;-52
2021/07/02 12:24:29;;;;;;;25.37;13.83;;;17.80;99.90;;;;;;4995875;28;20295;-52
2021/07/02 12:27:01;;;;;;;21.43;12.93;;;17.90;99.90;;;;;;4997616;28;20244;-52
2021/07/02 12:29:29;;;;;;;22.97;12.43;;;18.20;99.90;;;;;;4994943;28;20232;-52
2021/07/02 12:32:16;;;;;;;22.13;12.37;;;18.20;99.90;;;;;;4993437;28;20311;-52
2021/07/02 12:34:48;;;;;;;24.47;14.13;;;18.20;99.90;;;;;;4996186;28;20203;-52
2021/07/02 12:37:26;;;;;;;17.73;12.07;;;18.20;99.90;;;;;;4996379;28;20331;-52
2021/07/02 12:39:54;;;;;;;19.80;13.10;;;18.40;99.90;;;;;;4997960;28;20313;-52
2021/07/02 12:42:37;;;;;;;20.50;12.03;;;18.40;99.90;;;;;;4996589;28;20299;-52
2021/07/02 12:45:13;;;;;;;22.20;13.17;;;18.50;99.90;;;;;;4998256;28;20584;-52